Report METAR

 

LIRQ - Firenze, Italy
Distance from station: NNE 20km
Dati ricevuti: 12/12/2017 03:20
Pioggia intensa, Nuvoloso
Pioggia intensa, Nuvoloso
 Vento da OSO
Vento: OSO 19 km/h
Temperatura: 12°C
P.to Rugiada: 11°C
Umidità: 94%
Barometro: 1004 hPa
Summary: Pioggia intensa
Nuvole: Molto nuvoloso
Visibility: 6 km
Cloud details: Parz. nuvoloso 610 m
Molto nuvoloso 1524 m
2017/12/12 02:20 LIRQ 120220Z 25010KT 6000 +RA SCT020 BKN050 12/11 Q1004 RERA
LIRP - Pisa, Italy
Distance from station: O 55km
Dati ricevuti: 12/12/2017 03:15
Pioviggine, Nuvoloso
Pioviggine, Nuvoloso
 Vento da OSO
Vento: OSO 15 km/h
Temperatura: 12°C
P.to Rugiada: 11°C
Umidità: 94%
Barometro: 1004 hPa
Summary: Pioviggine
Nuvole: Molto nuvoloso
Visibility: 10 km
Cloud details: Parz. nuvoloso 610 m
Molto nuvoloso 914 m
2017/12/12 02:15 LIRP 120215Z 24008KT 9999 -RA SCT020 BKN030 12/11 Q1004 TEMPO 5000 RA
 
LIVC - Monte Cimone, Italy
Distance from station: NNO 69km
Dati ricevuti: 12/12/2017 02:55
Neve, Freezing, Nebbia
Neve, Freezing, Nebbia
 Vento da N
Vento: N 19 km/h, Raffica: 59 km/h
Temperatura: 0°C
Temperatura Vento: -5°C
P.to Rugiada: -2°C
Umidità: 87%
Barometro: 1001 hPa
Summary: Neve, Freezing, Nebbia
Visibility: 0 km
2017/12/12 01:55 LIVC 120155Z 01010G32KT 0000 SN FZFG VV/// M00/M02 Q1001 RMK MON INVIS VAL INVIS VIS MIN 0000
LIRS - Grosseto, Italy
Distance from station: S 98km
Dati ricevuti: 12/12/2017 02:55
Parz. nuvoloso
Parz. nuvoloso
 Vento da SSE
Vento: SSE 24 km/h
Temperatura: 17°C
P.to Rugiada: 12°C
Umidità: 73%
Barometro: 1004 hPa
Nuvole: Parz. nuvoloso
Visibility: 8 km
Cloud details: Parz. nuvoloso 762 m
2017/12/12 01:55 LIRS 120155Z 16013KT 8000 SCT025 17/12 Q1004